sensor_id;sensor_type;location;lat;lon;timestamp;pressure;altitude;pressure_sealevel;temperature
84354;BMP280;74538;43.522;1.516;2024-03-23T00:53:50;100363.91;;;23.20
84354;BMP280;74538;43.522;1.516;2024-03-23T00:56:16;100364.63;;;23.20
84354;BMP280;74538;43.522;1.516;2024-03-23T00:58:41;100364.34;;;23.18
84354;BMP280;74538;43.522;1.516;2024-03-23T01:01:07;100372.47;;;23.18
84354;BMP280;74538;43.522;1.516;2024-03-23T01:03:32;100375.16;;;23.18
84354;BMP280;74538;43.522;1.516;2024-03-23T01:06:02;100379.09;;;23.17
84354;BMP280;74538;43.522;1.516;2024-03-23T01:08:28;100377.13;;;23.18
84354;BMP280;74538;43.522;1.516;2024-03-23T01:11:00;100385.72;;;23.16
84354;BMP280;74538;43.522;1.516;2024-03-23T01:13:28;100376.13;;;23.15
84354;BMP280;74538;43.522;1.516;2024-03-23T01:15:55;100381.53;;;23.15
84354;BMP280;74538;43.522;1.516;2024-03-23T01:18:22;100383.47;;;23.15
84354;BMP280;74538;43.522;1.516;2024-03-23T01:20:48;100381.19;;;23.13
84354;BMP280;74538;43.522;1.516;2024-03-23T01:23:14;100392.00;;;23.13
84354;BMP280;74538;43.522;1.516;2024-03-23T01:25:40;100392.75;;;23.14
84354;BMP280;74538;43.522;1.516;2024-03-23T01:28:07;100396.66;;;23.13
84354;BMP280;74538;43.522;1.516;2024-03-23T01:30:35;100395.22;;;23.12
84354;BMP280;74538;43.522;1.516;2024-03-23T01:33:01;100399.88;;;23.11
84354;BMP280;74538;43.522;1.516;2024-03-23T01:35:28;100395.66;;;23.10
84354;BMP280;74538;43.522;1.516;2024-03-23T01:37:54;100400.31;;;23.09
84354;BMP280;74538;43.522;1.516;2024-03-23T01:40:20;100403.03;;;23.09
84354;BMP280;74538;43.522;1.516;2024-03-23T01:42:56;100401.56;;;23.08
84354;BMP280;74538;43.522;1.516;2024-03-23T01:45:22;100396.88;;;23.09
84354;BMP280;74538;43.522;1.516;2024-03-23T01:47:51;100403.97;;;23.06
84354;BMP280;74538;43.522;1.516;2024-03-23T01:50:19;100399.75;;;23.05
84354;BMP280;74538;43.522;1.516;2024-03-23T01:52:45;100404.44;;;23.05
84354;BMP280;74538;43.522;1.516;2024-03-23T01:55:11;100412.53;;;23.05
84354;BMP280;74538;43.522;1.516;2024-03-23T01:57:37;100406.38;;;23.04
84354;BMP280;74538;43.522;1.516;2024-03-23T02:00:03;100415.69;;;23.03
84354;BMP280;74538;43.522;1.516;2024-03-23T02:02:29;100414.94;;;23.03
84354;BMP280;74538;43.522;1.516;2024-03-23T02:04:55;100420.34;;;23.03
84354;BMP280;74538;43.522;1.516;2024-03-23T02:07:20;100414.94;;;23.03
84354;BMP280;74538;43.522;1.516;2024-03-23T02:09:46;100424.25;;;23.02
84354;BMP280;74538;43.522;1.516;2024-03-23T02:12:12;100428.19;;;23.01
84354;BMP280;74538;43.522;1.516;2024-03-23T02:14:37;100427.44;;;23.00
84354;BMP280;74538;43.522;1.516;2024-03-23T02:17:03;100429.41;;;23.00
84354;BMP280;74538;43.522;1.516;2024-03-23T02:19:29;100432.09;;;23.00
84354;BMP280;74538;43.522;1.516;2024-03-23T02:21:54;100434.47;;;22.98
84354;BMP280;74538;43.522;1.516;2024-03-23T02:24:20;100429.09;;;22.98
84354;BMP280;74538;43.522;1.516;2024-03-23T02:26:45;100439.88;;;22.98
84354;BMP280;74538;43.522;1.516;2024-03-23T02:29:13;100438.41;;;22.97
84354;BMP280;74538;43.522;1.516;2024-03-23T02:31:39;100436.47;;;22.97
84354;BMP280;74538;43.522;1.516;2024-03-23T02:34:05;100448.47;;;22.96
84354;BMP280;74538;43.522;1.516;2024-03-23T02:36:30;100446.22;;;22.95
84354;BMP280;74538;43.522;1.516;2024-03-23T02:38:56;100448.94;;;22.95
84354;BMP280;74538;43.522;1.516;2024-03-23T02:41:22;100446.22;;;22.95
84354;BMP280;74538;43.522;1.516;2024-03-23T02:43:52;100460.94;;;22.94
84354;BMP280;74538;43.522;1.516;2024-03-23T02:46:17;100469.06;;;22.94
84354;BMP280;74538;43.522;1.516;2024-03-23T02:48:43;100469.53;;;22.92
84354;BMP280;74538;43.522;1.516;2024-03-23T02:51:09;100474.19;;;22.92
84354;BMP280;74538;43.522;1.516;2024-03-23T02:53:35;100467.25;;;22.91
84354;BMP280;74538;43.522;1.516;2024-03-23T02:56:00;100472.66;;;22.91
84354;BMP280;74538;43.522;1.516;2024-03-23T02:58:26;100465.81;;;22.90
84354;BMP280;74538;43.522;1.516;2024-03-23T03:00:52;100466.53;;;22.90
84354;BMP280;74538;43.522;1.516;2024-03-23T03:03:17;100472.41;;;22.89
84354;BMP280;74538;43.522;1.516;2024-03-23T03:05:43;100458.91;;;22.89
84354;BMP280;74538;43.522;1.516;2024-03-23T03:08:09;100458.59;;;22.87
84354;BMP280;74538;43.522;1.516;2024-03-23T03:10:34;100464.31;;;22.89
84354;BMP280;74538;43.522;1.516;2024-03-23T03:13:02;100462.06;;;22.87
84354;BMP280;74538;43.522;1.516;2024-03-23T03:15:27;100460.56;;;22.86
84354;BMP280;74538;43.522;1.516;2024-03-23T03:17:53;100449.03;;;22.86
84354;BMP280;74538;43.522;1.516;2024-03-23T03:20:19;100453.69;;;22.85
84354;BMP280;74538;43.522;1.516;2024-03-23T03:22:47;100468.38;;;22.84
84354;BMP280;74538;43.522;1.516;2024-03-23T03:25:13;100474.97;;;22.83
84354;BMP280;74538;43.522;1.516;2024-03-23T03:27:38;100486.25;;;22.82
84354;BMP280;74538;43.522;1.516;2024-03-23T03:30:05;100498.53;;;22.83
84354;BMP280;74538;43.522;1.516;2024-03-23T03:32:32;100489.72;;;22.82
84354;BMP280;74538;43.522;1.516;2024-03-23T03:34:58;100495.56;;;22.81
84354;BMP280;74538;43.522;1.516;2024-03-23T03:37:24;100488.66;;;22.80
84354;BMP280;74538;43.522;1.516;2024-03-23T03:39:50;100485.97;;;22.80
84354;BMP280;74538;43.522;1.516;2024-03-23T03:42:15;100476.38;;;22.79
84354;BMP280;74538;43.522;1.516;2024-03-23T03:44:41;100469.50;;;22.78
84354;BMP280;74538;43.522;1.516;2024-03-23T03:47:06;100480.28;;;22.78
84354;BMP280;74538;43.522;1.516;2024-03-23T03:49:32;100484.94;;;22.77
84354;BMP280;74538;43.522;1.516;2024-03-23T03:51:58;100488.06;;;22.76
84354;BMP280;74538;43.522;1.516;2024-03-23T03:54:23;100492.72;;;22.75
84354;BMP280;74538;43.522;1.516;2024-03-23T03:56:49;100500.84;;;22.75
84354;BMP280;74538;43.522;1.516;2024-03-23T03:59:15;100501.31;;;22.74
84354;BMP280;74538;43.522;1.516;2024-03-23T04:01:41;100507.91;;;22.73
84354;BMP280;74538;43.522;1.516;2024-03-23T04:04:06;100505.22;;;22.73
84354;BMP280;74538;43.522;1.516;2024-03-23T04:06:32;100513.81;;;22.71
84354;BMP280;74538;43.522;1.516;2024-03-23T04:08:58;100521.16;;;22.70
84354;BMP280;74538;43.522;1.516;2024-03-23T04:11:24;100519.66;;;22.69
84354;BMP280;74538;43.522;1.516;2024-03-23T04:13:50;100521.63;;;22.69
84354;BMP280;74538;43.522;1.516;2024-03-23T04:16:29;100532.41;;;22.69
84354;BMP280;74538;43.522;1.516;2024-03-23T04:18:55;100536.28;;;22.68
84354;BMP280;74538;43.522;1.516;2024-03-23T04:21:21;100555.69;;;22.66
84354;BMP280;74538;43.522;1.516;2024-03-23T04:23:48;100552.22;;;22.66
84354;BMP280;74538;43.522;1.516;2024-03-23T04:26:15;100566.50;;;22.66
84354;BMP280;74538;43.522;1.516;2024-03-23T04:28:40;100564.25;;;22.65
84354;BMP280;74538;43.522;1.516;2024-03-23T04:31:06;100574.28;;;22.64
84354;BMP280;74538;43.522;1.516;2024-03-23T04:33:32;100584.34;;;22.64
84354;BMP280;74538;43.522;1.516;2024-03-23T04:35:58;100564.72;;;22.63
84354;BMP280;74538;43.522;1.516;2024-03-23T04:38:23;100583.63;;;22.63
84354;BMP280;74538;43.522;1.516;2024-03-23T04:40:59;100587.53;;;22.62
84354;BMP280;74538;43.522;1.516;2024-03-23T04:43:28;100584.06;;;22.62
84354;BMP280;74538;43.522;1.516;2024-03-23T04:45:54;100596.84;;;22.61
84354;BMP280;74538;43.522;1.516;2024-03-23T04:48:21;100593.06;;;22.59
84354;BMP280;74538;43.522;1.516;2024-03-23T04:50:54;100606.59;;;22.59
84354;BMP280;74538;43.522;1.516;2024-03-23T04:53:20;100605.09;;;22.58
84354;BMP280;74538;43.522;1.516;2024-03-23T04:55:46;100624.00;;;22.58
84354;BMP280;74538;43.522;1.516;2024-03-23T04:58:12;100605.53;;;22.56
84354;BMP280;74538;43.522;1.516;2024-03-23T05:00:37;100608.97;;;22.57
84354;BMP280;74538;43.522;1.516;2024-03-23T05:03:03;100606.75;;;22.55
84354;BMP280;74538;43.522;1.516;2024-03-23T05:05:29;100606.00;;;22.55
84354;BMP280;74538;43.522;1.516;2024-03-23T05:07:55;100605.25;;;22.54
84354;BMP280;74538;43.522;1.516;2024-03-23T05:10:20;100606.44;;;22.53
84354;BMP280;74538;43.522;1.516;2024-03-23T05:12:46;100598.81;;;22.52
84354;BMP280;74538;43.522;1.516;2024-03-23T05:15:12;100609.59;;;22.52
84354;BMP280;74538;43.522;1.516;2024-03-23T05:17:38;100602.69;;;22.51
84354;BMP280;74538;43.522;1.516;2024-03-23T05:20:04;100595.06;;;22.49
84354;BMP280;74538;43.522;1.516;2024-03-23T05:22:30;100608.56;;;22.49
84354;BMP280;74538;43.522;1.516;2024-03-23T05:24:56;100604.38;;;22.48
84354;BMP280;74538;43.522;1.516;2024-03-23T05:27:22;100605.59;;;22.47
84354;BMP280;74538;43.522;1.516;2024-03-23T05:29:48;100612.94;;;22.47
84354;BMP280;74538;43.522;1.516;2024-03-23T05:32:14;100614.88;;;22.46
84354;BMP280;74538;43.522;1.516;2024-03-23T05:34:39;100609.91;;;22.45
84354;BMP280;74538;43.522;1.516;2024-03-23T05:37:05;100620.69;;;22.45
84354;BMP280;74538;43.522;1.516;2024-03-23T05:39:31;100626.09;;;22.45
84354;BMP280;74538;43.522;1.516;2024-03-23T05:41:56;100626.56;;;22.43
84354;BMP280;74538;43.522;1.516;2024-03-23T05:44:22;100628.53;;;22.43
84354;BMP280;74538;43.522;1.516;2024-03-23T05:46:48;100625.06;;;22.42
84354;BMP280;74538;43.522;1.516;2024-03-23T05:49:15;100626.00;;;22.39
84354;BMP280;74538;43.522;1.516;2024-03-23T05:51:41;100634.09;;;22.39
84354;BMP280;74538;43.522;1.516;2024-03-23T05:54:06;100635.25;;;22.38
84354;BMP280;74538;43.522;1.516;2024-03-23T05:56:32;100636.47;;;22.37
84354;BMP280;74538;43.522;1.516;2024-03-23T05:58:58;100639.16;;;22.37
84354;BMP280;74538;43.522;1.516;2024-03-23T06:01:23;100635.00;;;22.36
84354;BMP280;74538;43.522;1.516;2024-03-23T06:03:49;100638.13;;;22.35
84354;BMP280;74538;43.522;1.516;2024-03-23T06:06:15;100637.38;;;22.34
84354;BMP280;74538;43.522;1.516;2024-03-23T06:08:40;100634.69;;;22.34
84354;BMP280;74538;43.522;1.516;2024-03-23T06:11:06;100630.97;;;22.31
84354;BMP280;74538;43.522;1.516;2024-03-23T06:13:32;100639.81;;;22.32
84354;BMP280;74538;43.522;1.516;2024-03-23T06:15:59;100639.81;;;22.32
84354;BMP280;74538;43.522;1.516;2024-03-23T06:18:25;100646.41;;;22.31
84354;BMP280;74538;43.522;1.516;2024-03-23T06:20:51;100656.91;;;22.29
84354;BMP280;74538;43.522;1.516;2024-03-23T06:23:17;100652.97;;;22.30
84354;BMP280;74538;43.522;1.516;2024-03-23T06:25:45;100666.94;;;22.28
84354;BMP280;74538;43.522;1.516;2024-03-23T06:28:11;100662.31;;;22.29
84354;BMP280;74538;43.522;1.516;2024-03-23T06:30:36;100659.28;;;22.27
84354;BMP280;74538;43.522;1.516;2024-03-23T06:33:02;100662.00;;;22.27
84354;BMP280;74538;43.522;1.516;2024-03-23T06:35:28;100659.75;;;22.25
84354;BMP280;74538;43.522;1.516;2024-03-23T06:37:53;100665.91;;;22.26
84354;BMP280;74538;43.522;1.516;2024-03-23T06:40:19;100667.84;;;22.25
84354;BMP280;74538;43.522;1.516;2024-03-23T06:42:45;100670.53;;;22.25
84354;BMP280;74538;43.522;1.516;2024-03-23T06:45:10;100681.81;;;22.24
84354;BMP280;74538;43.522;1.516;2024-03-23T06:47:36;100687.22;;;22.24
84354;BMP280;74538;43.522;1.516;2024-03-23T06:50:03;100682.97;;;22.23
84354;BMP280;74538;43.522;1.516;2024-03-23T06:52:29;100688.38;;;22.23
84354;BMP280;74538;43.522;1.516;2024-03-23T06:54:55;100686.88;;;22.22
84354;BMP280;74538;43.522;1.516;2024-03-23T06:57:21;100697.69;;;22.22
84354;BMP280;74538;43.522;1.516;2024-03-23T06:59:47;100692.28;;;22.22
84354;BMP280;74538;43.522;1.516;2024-03-23T07:02:12;100693.50;;;22.21
84354;BMP280;74538;43.522;1.516;2024-03-23T07:04:38;100698.91;;;22.21
84354;BMP280;74538;43.522;1.516;2024-03-23T07:07:05;100702.78;;;22.20
84354;BMP280;74538;43.522;1.516;2024-03-23T07:09:30;100698.16;;;22.20
84354;BMP280;74538;43.522;1.516;2024-03-23T07:11:57;100695.91;;;22.19
84354;BMP280;74538;43.522;1.516;2024-03-23T07:14:23;100698.59;;;22.19
84354;BMP280;74538;43.522;1.516;2024-03-23T07:16:49;100702.50;;;22.18
84354;BMP280;74538;43.522;1.516;2024-03-23T07:19:15;100705.94;;;22.18
84354;BMP280;74538;43.522;1.516;2024-03-23T07:21:42;100707.16;;;22.17
84354;BMP280;74538;43.522;1.516;2024-03-23T07:24:08;100706.41;;;22.17
84354;BMP280;74538;43.522;1.516;2024-03-23T07:26:34;100707.56;;;22.16
84354;BMP280;74538;43.522;1.516;2024-03-23T07:28:59;100707.56;;;22.16
84354;BMP280;74538;43.522;1.516;2024-03-23T07:31:25;100700.69;;;22.15
84354;BMP280;74538;43.522;1.516;2024-03-23T07:33:51;100712.22;;;22.15
84354;BMP280;74538;43.522;1.516;2024-03-23T07:36:16;100715.38;;;22.14
84354;BMP280;74538;43.522;1.516;2024-03-23T07:38:43;100728.13;;;22.13
84354;BMP280;74538;43.522;1.516;2024-03-23T07:41:16;100729.34;;;22.12
84354;BMP280;74538;43.522;1.516;2024-03-23T07:43:46;100723.19;;;22.12
84354;BMP280;74538;43.522;1.516;2024-03-23T07:46:13;100733.97;;;22.12
84354;BMP280;74538;43.522;1.516;2024-03-23T07:48:39;100740.56;;;22.11
84354;BMP280;74538;43.522;1.516;2024-03-23T07:51:26;100750.19;;;22.12
84354;BMP280;74538;43.522;1.516;2024-03-23T07:53:51;100748.66;;;22.11
84354;BMP280;74538;43.522;1.516;2024-03-23T07:56:20;100758.72;;;22.10
84354;BMP280;74538;43.522;1.516;2024-03-23T07:58:47;100756.50;;;22.09
84354;BMP280;74538;43.522;1.516;2024-03-23T08:01:15;100761.09;;;22.08
84354;BMP280;74538;43.522;1.516;2024-03-23T08:03:42;100770.41;;;22.07
84354;BMP280;74538;43.522;1.516;2024-03-23T08:06:13;100772.34;;;22.07
84354;BMP280;74538;43.522;1.516;2024-03-23T08:08:40;100784.34;;;22.06
84354;BMP280;74538;43.522;1.516;2024-03-23T08:11:06;100781.63;;;22.06
84354;BMP280;74538;43.522;1.516;2024-03-23T08:13:39;100790.94;;;22.05
84354;BMP280;74538;43.522;1.516;2024-03-23T08:16:05;100793.66;;;22.05
84354;BMP280;74538;43.522;1.516;2024-03-23T08:18:31;100792.16;;;22.04
84354;BMP280;74538;43.522;1.516;2024-03-23T08:21:02;100802.94;;;22.04
84354;BMP280;74538;43.522;1.516;2024-03-23T08:23:29;100808.34;;;22.04
84354;BMP280;74538;43.522;1.516;2024-03-23T08:25:59;100820.31;;;22.03
84354;BMP280;74538;43.522;1.516;2024-03-23T08:28:26;100813.47;;;22.02
84354;BMP280;74538;43.522;1.516;2024-03-23T08:30:52;100830.38;;;22.02
84354;BMP280;74538;43.522;1.516;2024-03-23T08:33:18;100835.03;;;22.02
84354;BMP280;74538;43.522;1.516;2024-03-23T08:35:56;100840.72;;;22.04
84354;BMP280;74538;43.522;1.516;2024-03-23T08:38:23;100835.78;;;22.02
84354;BMP280;74538;43.522;1.516;2024-03-23T08:40:59;100849.25;;;22.02
84354;BMP280;74538;43.522;1.516;2024-03-23T08:43:26;100845.84;;;22.02
84354;BMP280;74538;43.522;1.516;2024-03-23T08:45:52;100847.31;;;22.03
84354;BMP280;74538;43.522;1.516;2024-03-23T08:48:19;100849.69;;;22.01
84354;BMP280;74538;43.522;1.516;2024-03-23T08:51:07;100851.25;;;22.02
84354;BMP280;74538;43.522;1.516;2024-03-23T08:53:34;100855.09;;;22.01
84354;BMP280;74538;43.522;1.516;2024-03-23T08:56:00;100855.53;;;21.99
84354;BMP280;74538;43.522;1.516;2024-03-23T08:58:27;100858.25;;;21.99
84354;BMP280;74538;43.522;1.516;2024-03-23T09:00:55;100862.13;;;21.98
84354;BMP280;74538;43.522;1.516;2024-03-23T09:03:25;100861.41;;;21.98
84354;BMP280;74538;43.522;1.516;2024-03-23T09:05:51;100858.72;;;21.98
84354;BMP280;74538;43.522;1.516;2024-03-23T09:08:18;100862.59;;;21.97
84354;BMP280;74538;43.522;1.516;2024-03-23T09:10:44;100869.94;;;21.96
84354;BMP280;74538;43.522;1.516;2024-03-23T09:13:10;100861.84;;;21.96
84354;BMP280;74538;43.522;1.516;2024-03-23T09:15:45;100866.50;;;21.96
84354;BMP280;74538;43.522;1.516;2024-03-23T09:18:10;100864.97;;;21.94
84354;BMP280;74538;43.522;1.516;2024-03-23T09:20:36;100866.19;;;21.93
84354;BMP280;74538;43.522;1.516;2024-03-23T09:23:02;100871.88;;;21.96
84354;BMP280;74538;43.522;1.516;2024-03-23T09:25:27;100870.38;;;21.94
84354;BMP280;74538;43.522;1.516;2024-03-23T09:27:53;100870.81;;;21.93
84354;BMP280;74538;43.522;1.516;2024-03-23T09:30:18;100868.13;;;21.93
84354;BMP280;74538;43.522;1.516;2024-03-23T09:32:45;100869.63;;;21.94
84354;BMP280;74538;43.522;1.516;2024-03-23T09:35:11;100875.03;;;21.94
84354;BMP280;74538;43.522;1.516;2024-03-23T09:37:38;100872.75;;;21.92
84354;BMP280;74538;43.522;1.516;2024-03-23T09:40:09;100879.69;;;21.93
84354;BMP280;74538;43.522;1.516;2024-03-23T09:42:37;100885.09;;;21.93
84354;BMP280;74538;43.522;1.516;2024-03-23T09:45:05;100889.28;;;21.94
84354;BMP280;74538;43.522;1.516;2024-03-23T09:47:32;100886.56;;;21.94
84354;BMP280;74538;43.522;1.516;2024-03-23T09:49:58;100880.41;;;21.94
84354;BMP280;74538;43.522;1.516;2024-03-23T09:52:23;100877.28;;;21.96
84354;BMP280;74538;43.522;1.516;2024-03-23T09:54:49;100873.84;;;21.95
84354;BMP280;74538;43.522;1.516;2024-03-23T09:57:15;100870.38;;;21.94
84354;BMP280;74538;43.522;1.516;2024-03-23T09:59:40;100875.78;;;21.94
84354;BMP280;74538;43.522;1.516;2024-03-23T10:02:06;100870.38;;;21.94
84354;BMP280;74538;43.522;1.516;2024-03-23T10:04:41;100877.00;;;21.93
84354;BMP280;74538;43.522;1.516;2024-03-23T10:07:15;100878.03;;;21.96
84354;BMP280;74538;43.522;1.516;2024-03-23T10:09:42;100871.13;;;21.95
84354;BMP280;74538;43.522;1.516;2024-03-23T10:12:12;100864.97;;;21.94
84354;BMP280;74538;43.522;1.516;2024-03-23T10:14:41;100863.50;;;21.93
84354;BMP280;74538;43.522;1.516;2024-03-23T10:17:17;100859.59;;;21.94
84354;BMP280;74538;43.522;1.516;2024-03-23T10:19:47;100847.31;;;21.93
84354;BMP280;74538;43.522;1.516;2024-03-23T10:22:20;100853.44;;;21.94
84354;BMP280;74538;43.522;1.516;2024-03-23T10:24:47;100847.31;;;21.93
84354;BMP280;74538;43.522;1.516;2024-03-23T10:27:20;100851.16;;;21.92
84354;BMP280;74538;43.522;1.516;2024-03-23T10:29:46;100852.72;;;21.93
84354;BMP280;74538;43.522;1.516;2024-03-23T10:32:14;100852.72;;;21.93
84354;BMP280;74538;43.522;1.516;2024-03-23T10:34:40;100853.88;;;21.92
84354;BMP280;74538;43.522;1.516;2024-03-23T10:37:06;100841.91;;;21.93
84354;BMP280;74538;43.522;1.516;2024-03-23T10:39:34;100833.03;;;21.93
84354;BMP280;74538;43.522;1.516;2024-03-23T10:42:08;100832.28;;;21.92
84354;BMP280;74538;43.522;1.516;2024-03-23T10:44:34;100829.59;;;21.92
84354;BMP280;74538;43.522;1.516;2024-03-23T10:47:04;100832.28;;;21.92
84354;BMP280;74538;43.522;1.516;2024-03-23T10:49:34;100824.19;;;21.92
84354;BMP280;74538;43.522;1.516;2024-03-23T10:52:04;100828.06;;;21.91
84354;BMP280;74538;43.522;1.516;2024-03-23T10:54:31;100817.28;;;21.91
84354;BMP280;74538;43.522;1.516;2024-03-23T10:57:04;100811.88;;;21.91
84354;BMP280;74538;43.522;1.516;2024-03-23T10:59:31;100809.94;;;21.92
84354;BMP280;74538;43.522;1.516;2024-03-23T11:01:58;100799.59;;;21.90
84354;BMP280;74538;43.522;1.516;2024-03-23T11:04:36;100795.69;;;21.91
84354;BMP280;74538;43.522;1.516;2024-03-23T11:09:49;100796.88;;;21.90
84354;BMP280;74538;43.522;1.516;2024-03-23T11:14:57;100794.19;;;21.90
84354;BMP280;74538;43.522;1.516;2024-03-23T11:17:25;100790.75;;;21.90
84354;BMP280;74538;43.522;1.516;2024-03-23T11:20:04;100787.31;;;21.89
84354;BMP280;74538;43.522;1.516;2024-03-23T11:22:46;100783.13;;;21.88
84354;BMP280;74538;43.522;1.516;2024-03-23T11:27:47;100768.13;;;21.87
84354;BMP280;74538;43.522;1.516;2024-03-23T11:30:27;100764.22;;;21.88
84354;BMP280;74538;43.522;1.516;2024-03-23T11:32:58;100760.03;;;21.87
84354;BMP280;74538;43.522;1.516;2024-03-23T11:35:32;100751.94;;;21.87
84354;BMP280;74538;43.522;1.516;2024-03-23T11:40:28;100741.13;;;21.87
84354;BMP280;74538;43.522;1.516;2024-03-23T11:43:01;100745.03;;;21.86
84354;BMP280;74538;43.522;1.516;2024-03-23T11:45:28;100739.63;;;21.86
84354;BMP280;74538;43.522;1.516;2024-03-23T11:48:09;100732.28;;;21.87
84354;BMP280;74538;43.522;1.516;2024-03-23T11:50:42;100726.13;;;21.86
84354;BMP280;74538;43.522;1.516;2024-03-23T11:53:14;100735.72;;;21.87
84354;BMP280;74538;43.522;1.516;2024-03-23T11:55:45;100726.13;;;21.86
84354;BMP280;74538;43.522;1.516;2024-03-23T11:58:11;100717.28;;;21.86
84354;BMP280;74538;43.522;1.516;2024-03-23T12:00:37;100709.19;;;21.86
84354;BMP280;74538;43.522;1.516;2024-03-23T12:03:04;100719.22;;;21.85
84354;BMP280;74538;43.522;1.516;2024-03-23T12:05:31;100712.66;;;21.86
84354;BMP280;74538;43.522;1.516;2024-03-23T12:11:15;100708.44;;;21.85
84354;BMP280;74538;43.522;1.516;2024-03-23T12:13:42;100708.44;;;21.85
84354;BMP280;74538;43.522;1.516;2024-03-23T12:16:24;100704.25;;;21.84
84354;BMP280;74538;43.522;1.516;2024-03-23T12:18:51;100698.84;;;21.84
84354;BMP280;74538;43.522;1.516;2024-03-23T12:21:17;100685.34;;;21.84
84354;BMP280;74538;43.522;1.516;2024-03-23T12:23:43;100680.41;;;21.83
84354;BMP280;74538;43.522;1.516;2024-03-23T12:26:14;100682.66;;;21.84
84354;BMP280;74538;43.522;1.516;2024-03-23T12:28:41;100671.88;;;21.84
84354;BMP280;74538;43.522;1.516;2024-03-23T12:31:06;100678.75;;;21.85
84354;BMP280;74538;43.522;1.516;2024-03-23T12:33:32;100685.34;;;21.84
84354;BMP280;74538;43.522;1.516;2024-03-23T12:35:57;100669.16;;;21.84
84354;BMP280;74538;43.522;1.516;2024-03-23T12:38:23;100652.22;;;21.84
84354;BMP280;74538;43.522;1.516;2024-03-23T12:40:49;100647.56;;;21.84
84354;BMP280;74538;43.522;1.516;2024-03-23T12:43:16;100642.94;;;21.85
84354;BMP280;74538;43.522;1.516;2024-03-23T12:45:48;100642.19;;;21.84
84354;BMP280;74538;43.522;1.516;2024-03-23T12:48:14;100633.66;;;21.86
84354;BMP280;74538;43.522;1.516;2024-03-23T12:50:40;100630.19;;;21.85
84354;BMP280;74538;43.522;1.516;2024-03-23T12:53:06;100639.03;;;21.86
84354;BMP280;74538;43.522;1.516;2024-03-23T12:55:32;100631.69;;;21.86
84354;BMP280;74538;43.522;1.516;2024-03-23T12:58:00;100620.16;;;21.86
84354;BMP280;74538;43.522;1.516;2024-03-23T13:00:25;100620.91;;;21.86
84354;BMP280;74538;43.522;1.516;2024-03-23T13:02:51;100615.50;;;21.86
84354;BMP280;74538;43.522;1.516;2024-03-23T13:05:16;100606.22;;;21.87
84354;BMP280;74538;43.522;1.516;2024-03-23T13:07:42;100605.47;;;21.87
84354;BMP280;74538;43.522;1.516;2024-03-23T13:10:08;100600.81;;;21.87
84354;BMP280;74538;43.522;1.516;2024-03-23T13:12:34;100596.19;;;21.88
84354;BMP280;74538;43.522;1.516;2024-03-23T13:15:00;100593.50;;;21.88
84354;BMP280;74538;43.522;1.516;2024-03-23T13:17:27;100600.81;;;21.87
84354;BMP280;74538;43.522;1.516;2024-03-23T13:19:53;100583.44;;;21.88
84354;BMP280;74538;43.522;1.516;2024-03-23T13:22:19;100566.50;;;21.88
84354;BMP280;74538;43.522;1.516;2024-03-23T13:24:45;100569.94;;;21.88
84354;BMP280;74538;43.522;1.516;2024-03-23T13:27:10;100564.56;;;21.88
84354;BMP280;74538;43.522;1.516;2024-03-23T13:29:36;100572.66;;;21.88
84354;BMP280;74538;43.522;1.516;2024-03-23T13:32:05;100560.66;;;21.89
84354;BMP280;74538;43.522;1.516;2024-03-23T13:34:31;100560.66;;;21.89
84354;BMP280;74538;43.522;1.516;2024-03-23T13:36:58;100550.59;;;21.90
84354;BMP280;74538;43.522;1.516;2024-03-23T13:39:24;100552.56;;;21.89
84354;BMP280;74538;43.522;1.516;2024-03-23T13:41:51;100561.38;;;21.90
84354;BMP280;74538;43.522;1.516;2024-03-23T13:44:16;100555.25;;;21.89
84354;BMP280;74538;43.522;1.516;2024-03-23T13:46:43;100545.19;;;21.90
84354;BMP280;74538;43.522;1.516;2024-03-23T13:49:27;100545.50;;;21.92
84354;BMP280;74538;43.522;1.516;2024-03-23T13:51:54;100542.06;;;21.91
84354;BMP280;74538;43.522;1.516;2024-03-23T13:54:20;100542.06;;;21.91
84354;BMP280;74538;43.522;1.516;2024-03-23T13:56:48;100536.66;;;21.91
84354;BMP280;74538;43.522;1.516;2024-03-23T13:59:14;100523.16;;;21.91
84354;BMP280;74538;43.522;1.516;2024-03-23T14:01:40;100518.53;;;21.92
84354;BMP280;74538;43.522;1.516;2024-03-23T14:04:06;100521.97;;;21.92
84354;BMP280;74538;43.522;1.516;2024-03-23T14:06:31;100523.16;;;21.91
84354;BMP280;74538;43.522;1.516;2024-03-23T14:08:58;100522.72;;;21.93
84354;BMP280;74538;43.522;1.516;2024-03-23T14:11:23;100511.19;;;21.92
84354;BMP280;74538;43.522;1.516;2024-03-23T14:13:52;100505.78;;;21.92
84354;BMP280;74538;43.522;1.516;2024-03-23T14:16:18;100510.00;;;21.93
84354;BMP280;74538;43.522;1.516;2024-03-23T14:18:46;100507.31;;;21.93
84354;BMP280;74538;43.522;1.516;2024-03-23T14:21:12;100489.13;;;21.94
84354;BMP280;74538;43.522;1.516;2024-03-23T14:23:38;100498.75;;;21.95
84354;BMP280;74538;43.522;1.516;2024-03-23T14:26:03;100483.75;;;21.94
84354;BMP280;74538;43.522;1.516;2024-03-23T14:28:30;100487.19;;;21.94
84354;BMP280;74538;43.522;1.516;2024-03-23T14:30:56;100487.94;;;21.95
84354;BMP280;74538;43.522;1.516;2024-03-23T14:33:22;100471.75;;;21.95
84354;BMP280;74538;43.522;1.516;2024-03-23T14:35:53;100477.91;;;21.96
84354;BMP280;74538;43.522;1.516;2024-03-23T14:38:19;100471.31;;;21.97
84354;BMP280;74538;43.522;1.516;2024-03-23T14:40:48;100474.00;;;21.97
84354;BMP280;74538;43.522;1.516;2024-03-23T14:43:15;100477.91;;;21.96
84354;BMP280;74538;43.522;1.516;2024-03-23T14:48:31;100468.88;;;21.99
84354;BMP280;74538;43.522;1.516;2024-03-23T14:50:58;100470.81;;;21.98
84354;BMP280;74538;43.522;1.516;2024-03-23T14:53:25;100464.72;;;21.98
84354;BMP280;74538;43.522;1.516;2024-03-23T14:55:51;100453.91;;;21.98
84354;BMP280;74538;43.522;1.516;2024-03-23T14:58:19;100452.69;;;21.99
84354;BMP280;74538;43.522;1.516;2024-03-23T15:00:45;100454.19;;;22.00
84354;BMP280;74538;43.522;1.516;2024-03-23T15:03:10;100456.88;;;22.00
84354;BMP280;74538;43.522;1.516;2024-03-23T15:05:36;100457.63;;;22.00